createdAt,value
2018-11-23T00:03:57.210Z,56.97
2018-11-23T00:09:06.241Z,59.67
2018-11-23T00:14:08.497Z,54.73
2018-11-23T00:19:10.780Z,60.90
2018-11-23T00:24:12.996Z,66.90
2018-11-23T00:29:15.220Z,119.20
2018-11-23T00:34:17.473Z,56.87
2018-11-23T00:39:19.935Z,62.83
2018-11-23T00:44:22.147Z,63.83
2018-11-23T00:49:24.386Z,59.50
2018-11-23T00:54:26.611Z,82.43
2018-11-23T00:59:28.830Z,69.50
2018-11-23T01:04:31.883Z,64.60
2018-11-23T01:09:34.100Z,54.87
2018-11-23T01:14:36.321Z,52.50
2018-11-23T01:19:38.538Z,65.50
2018-11-23T01:24:40.759Z,62.67
2018-11-23T01:29:42.991Z,52.67
2018-11-23T01:34:45.203Z,62.53
2018-11-23T01:39:47.421Z,65.77
2018-11-23T01:44:50.703Z,63.93
2018-11-23T01:49:52.930Z,65.23
2018-11-23T01:54:55.146Z,65.70
2018-11-23T01:59:57.378Z,61.47
2018-11-23T02:04:59.622Z,62.43
2018-11-23T02:10:01.856Z,53.37
2018-11-23T02:15:05.814Z,65.67
2018-11-23T02:20:09.470Z,65.73
2018-11-23T02:25:11.684Z,65.00
2018-11-23T02:30:21.325Z,61.83
2018-11-23T02:35:23.527Z,58.23
2018-11-23T02:40:25.727Z,65.37
2018-11-23T02:45:27.940Z,59.63
2018-11-23T02:50:30.111Z,70.93
2018-11-23T02:55:32.295Z,62.17
2018-11-23T03:00:34.499Z,59.03
2018-11-23T03:05:36.686Z,67.23
2018-11-23T03:10:38.922Z,68.37
2018-11-23T03:15:41.103Z,61.27
2018-11-23T03:20:44.144Z,56.83
2018-11-23T03:25:46.330Z,56.77
2018-11-23T03:30:48.514Z,64.23
2018-11-23T03:35:50.723Z,59.50
2018-11-23T03:40:52.958Z,54.67
2018-11-23T03:45:55.191Z,56.87
2018-11-23T03:50:57.431Z,58.70
2018-11-23T03:55:59.653Z,60.07
2018-11-23T04:01:01.879Z,61.43
2018-11-23T04:06:04.443Z,48.40
2018-11-23T04:11:06.686Z,53.63
2018-11-23T04:16:08.899Z,50.00
2018-11-23T04:21:11.159Z,52.87
2018-11-23T04:26:13.394Z,56.30
2018-11-23T04:31:15.614Z,63.30
2018-11-23T04:36:17.859Z,48.20
2018-11-23T04:41:20.098Z,52.50
2018-11-23T04:46:22.334Z,61.50
2018-11-23T04:51:24.583Z,49.37
2018-11-23T04:56:26.834Z,56.43
2018-11-23T05:01:29.093Z,54.30
2018-11-23T05:06:31.327Z,58.10
2018-11-23T05:11:33.548Z,56.97
2018-11-23T05:16:35.773Z,62.03
2018-11-23T05:21:38.010Z,56.53
2018-11-23T05:26:40.372Z,61.37
2018-11-23T05:31:42.759Z,61.00
2018-11-23T05:36:45.016Z,56.83
2018-11-23T05:41:47.474Z,54.57
2018-11-23T05:46:49.658Z,55.10
2018-11-23T05:51:51.871Z,52.97
2018-11-23T05:56:54.102Z,61.03
2018-11-23T06:01:56.334Z,64.37
2018-11-23T06:06:58.590Z,65.80
2018-11-23T06:12:00.802Z,67.10
2018-11-23T06:17:03.052Z,72.67
2018-11-23T06:22:05.287Z,61.97
2018-11-23T06:27:07.506Z,63.80
2018-11-23T06:32:21.602Z,65.93
2018-11-23T06:37:23.843Z,61.93
2018-11-23T06:42:26.074Z,49.90
2018-11-23T06:47:28.326Z,57.90
2018-11-23T06:52:30.578Z,53.13
2018-11-23T06:57:32.855Z,53.00
2018-11-23T07:02:35.109Z,57.30
2018-11-23T07:07:37.388Z,54.73
2018-11-23T07:12:39.918Z,53.63
2018-11-23T07:17:42.238Z,50.60
2018-11-23T07:22:44.511Z,74.87
2018-11-23T07:27:46.766Z,53.43
2018-11-23T07:32:49.007Z,55.37
2018-11-23T07:37:51.396Z,56.70
2018-11-23T07:42:54.050Z,53.43
2018-11-23T07:47:56.270Z,63.47
2018-11-23T07:52:58.498Z,59.83
2018-11-23T07:58:00.767Z,62.90
2018-11-23T08:03:03.281Z,58.37
2018-11-23T08:08:05.679Z,44.50
2018-11-23T08:13:07.960Z,44.23
2018-11-23T08:18:10.199Z,48.53
2018-11-23T08:23:12.481Z,54.10
2018-11-23T08:28:14.738Z,55.07
2018-11-23T08:33:17.001Z,46.53
2018-11-23T08:38:19.250Z,48.43
2018-11-23T08:43:21.462Z,43.77
2018-11-23T08:48:23.751Z,41.60
2018-11-23T08:53:30.279Z,38.50
2018-11-23T08:58:32.513Z,42.20
2018-11-23T09:03:34.791Z,38.30
2018-11-23T09:08:37.116Z,43.53
2018-11-23T09:13:40.490Z,40.70
2018-11-23T09:18:42.716Z,35.73
2018-11-23T09:23:44.978Z,39.80
2018-11-23T09:28:47.257Z,37.97
2018-11-23T09:33:49.469Z,41.13
2018-11-23T09:38:52.003Z,41.00
2018-11-23T09:43:54.261Z,40.00
2018-11-23T09:48:56.478Z,45.17
2018-11-23T09:53:58.693Z,42.90
2018-11-23T09:59:00.959Z,41.03
2018-11-23T10:04:03.228Z,40.80
2018-11-23T10:09:06.796Z,47.00
2018-11-23T10:14:09.361Z,47.53
2018-11-23T10:19:18.254Z,45.00
2018-11-23T10:24:20.752Z,45.30
2018-11-23T10:29:23.063Z,49.57
2018-11-23T10:34:25.554Z,55.70
2018-11-23T10:39:28.176Z,56.80
2018-11-23T10:44:30.531Z,48.60
2018-11-23T10:49:32.810Z,52.57
2018-11-23T10:54:35.103Z,53.33
2018-11-23T10:59:37.404Z,54.83
2018-11-23T11:04:45.321Z,59.07
2018-11-23T11:09:47.584Z,57.33
2018-11-23T11:14:49.876Z,53.90
2018-11-23T11:19:52.170Z,60.73
2018-11-23T11:24:54.465Z,52.87
2018-11-23T11:29:57.183Z,54.90
2018-11-23T11:34:59.510Z,54.80
2018-11-23T11:40:01.973Z,67.80
2018-11-23T11:45:06.199Z,49.30
2018-11-23T11:50:09.423Z,49.93
2018-11-23T11:55:13.342Z,54.03
2018-11-23T12:00:17.330Z,55.90
2018-11-23T12:05:19.611Z,52.70
2018-11-23T12:10:23.474Z,49.00
2018-11-23T12:15:25.706Z,55.53
2018-11-23T12:20:27.925Z,52.63
2018-11-23T12:25:30.293Z,109.00
2018-11-23T12:30:32.606Z,50.90
2018-11-23T12:35:34.897Z,42.20
2018-11-23T12:40:37.191Z,44.63
2018-11-23T12:45:39.427Z,41.00
2018-11-23T12:50:41.679Z,46.27
2018-11-23T12:55:43.986Z,35.20
2018-11-23T13:00:46.222Z,27.13
2018-11-23T13:05:48.734Z,26.70
2018-11-23T13:10:58.015Z,25.50
2018-11-23T13:16:00.259Z,23.47
2018-11-23T13:21:02.559Z,24.90
2018-11-23T13:26:05.161Z,20.47
2018-11-23T13:31:07.558Z,24.27
2018-11-23T13:36:10.029Z,20.50
2018-11-23T13:41:12.448Z,20.33
2018-11-23T13:46:14.770Z,18.27
2018-11-23T13:51:17.118Z,19.37
2018-11-23T13:56:19.482Z,19.53
2018-11-23T14:01:21.847Z,30.00
2018-11-23T14:06:24.119Z,23.77
2018-11-23T14:11:26.467Z,16.80
2018-11-23T14:16:28.826Z,18.67
2018-11-23T14:21:31.126Z,19.00
2018-11-23T14:26:33.358Z,16.83
2018-11-23T14:31:35.575Z,19.30
2018-11-23T14:36:37.782Z,16.80
2018-11-23T14:41:40.003Z,20.97
2018-11-23T14:46:42.231Z,20.50
2018-11-23T14:51:44.471Z,19.13
2018-11-23T14:56:46.711Z,19.00
2018-11-23T15:01:52.169Z,18.00
2018-11-23T15:06:51.215Z,18.90
2018-11-23T15:11:53.463Z,21.93
2018-11-23T15:16:55.722Z,18.20
2018-11-23T15:21:57.990Z,22.83
2018-11-23T15:27:00.239Z,22.13
2018-11-23T15:32:02.483Z,20.03
2018-11-23T15:37:05.109Z,20.67
2018-11-23T15:42:07.363Z,23.70
2018-11-23T15:47:09.594Z,26.70
2018-11-23T15:52:11.830Z,23.77
2018-11-23T15:57:14.066Z,24.93
2018-11-23T16:02:16.363Z,20.90
2018-11-23T16:07:18.625Z,21.83
2018-11-23T16:12:20.859Z,21.47
2018-11-23T16:17:23.132Z,22.30
2018-11-23T16:22:25.386Z,21.00
2018-11-23T16:27:27.644Z,23.40
2018-11-23T16:32:29.886Z,22.67
2018-11-23T16:37:32.119Z,20.70
2018-11-23T16:42:34.412Z,18.70
2018-11-23T16:47:36.862Z,22.77
2018-11-23T16:52:39.767Z,20.40
2018-11-23T16:57:43.417Z,23.80
2018-11-23T17:02:45.895Z,27.17
2018-11-23T17:07:48.202Z,23.87
2018-11-23T17:12:57.195Z,23.53
2018-11-23T17:17:59.462Z,23.63
2018-11-23T17:23:02.674Z,24.67
2018-11-23T17:28:06.716Z,25.93
2018-11-23T17:33:09.307Z,25.30
2018-11-23T17:38:11.610Z,25.60
2018-11-23T17:43:13.887Z,25.30
2018-11-23T17:48:16.231Z,25.07
2018-11-23T17:53:18.522Z,25.60
2018-11-23T17:58:20.811Z,25.60
2018-11-23T18:03:23.119Z,24.20
2018-11-23T18:08:25.402Z,25.67
2018-11-23T18:13:27.692Z,27.00
2018-11-23T18:18:30.087Z,23.07
2018-11-23T18:23:32.375Z,25.27
2018-11-23T18:28:34.614Z,25.97
2018-11-23T18:33:36.899Z,27.33
2018-11-23T18:38:39.147Z,27.70
2018-11-23T18:43:41.443Z,25.70
2018-11-23T18:48:43.711Z,31.70
2018-11-23T18:53:45.927Z,30.07
2018-11-23T18:58:48.189Z,31.40
2018-11-23T19:03:50.688Z,32.57
2018-11-23T19:08:53.006Z,32.53
2018-11-23T19:13:55.246Z,41.40
2018-11-23T19:18:57.518Z,40.23
2018-11-23T19:23:59.779Z,39.33
2018-11-23T19:29:02.041Z,43.90
2018-11-23T19:34:04.334Z,53.50
2018-11-23T19:39:07.314Z,41.33
2018-11-23T19:44:09.732Z,45.30
2018-11-23T19:49:11.958Z,48.10
2018-11-23T19:54:14.214Z,57.63
2018-11-23T19:59:16.514Z,46.30
2018-11-23T20:04:18.852Z,51.90
2018-11-23T20:09:21.221Z,61.23
2018-11-23T20:14:23.687Z,59.93
2018-11-23T20:19:25.959Z,60.23
2018-11-23T20:24:28.227Z,58.50
2018-11-23T20:29:30.630Z,58.80
2018-11-23T20:34:32.919Z,67.10
2018-11-23T20:39:35.174Z,74.03
2018-11-23T20:44:37.563Z,64.13
2018-11-23T20:49:45.734Z,67.27
2018-11-23T20:54:42.096Z,72.53
2018-11-23T20:59:44.394Z,61.70
2018-11-23T21:04:46.714Z,58.60
2018-11-23T21:09:48.979Z,67.00
2018-11-23T21:14:51.247Z,61.33
2018-11-23T21:19:53.482Z,60.17
2018-11-23T21:24:55.715Z,70.30
2018-11-23T21:29:57.937Z,61.57
2018-11-23T21:35:00.207Z,65.27
2018-11-23T21:40:02.467Z,64.70
2018-11-23T21:45:06.776Z,66.77
2018-11-23T21:50:10.785Z,64.10
2018-11-23T21:55:18.903Z,58.87
2018-11-23T22:00:21.155Z,64.23
2018-11-23T22:05:23.616Z,63.43
2018-11-23T22:10:25.863Z,65.73
2018-11-23T22:15:28.277Z,71.90
2018-11-23T22:20:30.619Z,58.17
2018-11-23T22:25:32.908Z,63.60
2018-11-23T22:30:35.167Z,61.30
2018-11-23T22:35:37.401Z,61.10
2018-11-23T22:40:39.646Z,69.37
2018-11-23T22:45:41.890Z,64.27
2018-11-23T22:50:44.144Z,64.57
2018-11-23T22:55:46.398Z,61.53
2018-11-23T23:00:48.674Z,66.00
2018-11-23T23:05:50.922Z,69.53
2018-11-23T23:10:53.158Z,71.27
2018-11-23T23:15:55.450Z,62.60
2018-11-23T23:20:57.726Z,67.07
2018-11-23T23:25:59.975Z,68.27
2018-11-23T23:31:02.311Z,64.90
2018-11-23T23:36:04.575Z,76.53
2018-11-23T23:41:06.814Z,71.30
2018-11-23T23:46:09.066Z,68.73
2018-11-23T23:51:11.294Z,59.33
2018-11-23T23:56:13.522Z,63.27
